sensor_id;sensor_type;location;lat;lon;timestamp;temperature;humidity
3194;DHT22;1608;50.860;13.466;2023-03-01T00:01:00;-5.10;94.40
3194;DHT22;1608;50.860;13.466;2023-03-01T00:03:27;-5.10;94.10
3194;DHT22;1608;50.860;13.466;2023-03-01T00:05:54;-5.00;94.40
3194;DHT22;1608;50.860;13.466;2023-03-01T00:08:22;-5.00;94.20
3194;DHT22;1608;50.860;13.466;2023-03-01T00:10:49;-5.00;94.40
3194;DHT22;1608;50.860;13.466;2023-03-01T00:13:16;-5.00;93.70
3194;DHT22;1608;50.860;13.466;2023-03-01T00:15:43;-5.00;94.10
3194;DHT22;1608;50.860;13.466;2023-03-01T00:18:09;-5.00;94.10
3194;DHT22;1608;50.860;13.466;2023-03-01T00:20:36;-5.10;93.70
3194;DHT22;1608;50.860;13.466;2023-03-01T00:23:03;-5.10;93.30
3194;DHT22;1608;50.860;13.466;2023-03-01T00:25:31;-5.10;93.60
3194;DHT22;1608;50.860;13.466;2023-03-01T00:27:58;-5.20;93.70
3194;DHT22;1608;50.860;13.466;2023-03-01T00:30:25;-5.20;93.70
3194;DHT22;1608;50.860;13.466;2023-03-01T00:32:51;-5.20;99.40
3194;DHT22;1608;50.860;13.466;2023-03-01T00:35:18;-5.30;93.80
3194;DHT22;1608;50.860;13.466;2023-03-01T00:37:45;-5.30;93.80
3194;DHT22;1608;50.860;13.466;2023-03-01T00:40:13;-5.30;93.80
3194;DHT22;1608;50.860;13.466;2023-03-01T00:42:43;-4.60;99.50
3194;DHT22;1608;50.860;13.466;2023-03-01T00:45:10;-5.40;93.80
3194;DHT22;1608;50.860;13.466;2023-03-01T00:47:38;-5.40;93.90
3194;DHT22;1608;50.860;13.466;2023-03-01T00:50:06;-5.40;94.20
3194;DHT22;1608;50.860;13.466;2023-03-01T00:52:33;-5.40;93.80
3194;DHT22;1608;50.860;13.466;2023-03-01T00:54:59;-5.40;93.60
3194;DHT22;1608;50.860;13.466;2023-03-01T00:57:26;-5.40;94.00
3194;DHT22;1608;50.860;13.466;2023-03-01T00:59:54;-5.30;93.90
3194;DHT22;1608;50.860;13.466;2023-03-01T01:02:22;-5.40;93.70
3194;DHT22;1608;50.860;13.466;2023-03-01T01:04:49;-5.40;93.50
3194;DHT22;1608;50.860;13.466;2023-03-01T01:07:16;-5.40;93.70
3194;DHT22;1608;50.860;13.466;2023-03-01T01:09:43;-5.50;93.50
3194;DHT22;1608;50.860;13.466;2023-03-01T01:12:09;-5.50;93.40
3194;DHT22;1608;50.860;13.466;2023-03-01T01:14:36;-5.50;93.30
3194;DHT22;1608;50.860;13.466;2023-03-01T01:17:05;-5.50;93.40
3194;DHT22;1608;50.860;13.466;2023-03-01T01:19:31;-5.60;93.30
3194;DHT22;1608;50.860;13.466;2023-03-01T01:21:58;-5.60;93.40
3194;DHT22;1608;50.860;13.466;2023-03-01T01:24:25;-5.80;93.10
3194;DHT22;1608;50.860;13.466;2023-03-01T01:26:52;-5.80;93.40
3194;DHT22;1608;50.860;13.466;2023-03-01T01:29:19;-5.90;93.40
3194;DHT22;1608;50.860;13.466;2023-03-01T01:31:46;-5.90;93.60
3194;DHT22;1608;50.860;13.466;2023-03-01T01:34:16;-5.90;93.30
3194;DHT22;1608;50.860;13.466;2023-03-01T01:36:43;-5.90;93.60
3194;DHT22;1608;50.860;13.466;2023-03-01T01:39:10;-5.80;93.50
3194;DHT22;1608;50.860;13.466;2023-03-01T01:41:39;-5.90;93.40
3194;DHT22;1608;50.860;13.466;2023-03-01T01:44:15;-5.90;93.10
3194;DHT22;1608;50.860;13.466;2023-03-01T01:46:46;-5.80;93.50
3194;DHT22;1608;50.860;13.466;2023-03-01T01:49:24;-5.90;93.40
3194;DHT22;1608;50.860;13.466;2023-03-01T01:51:57;-5.90;93.50
3194;DHT22;1608;50.860;13.466;2023-03-01T01:54:29;-5.80;93.10
3194;DHT22;1608;50.860;13.466;2023-03-01T01:57:00;-5.80;93.70
3194;DHT22;1608;50.860;13.466;2023-03-01T01:59:31;-5.80;93.40
3194;DHT22;1608;50.860;13.466;2023-03-01T02:01:59;-5.80;93.30
3194;DHT22;1608;50.860;13.466;2023-03-01T02:04:28;-5.80;92.90
3194;DHT22;1608;50.860;13.466;2023-03-01T02:06:59;-5.90;93.10
3194;DHT22;1608;50.860;13.466;2023-03-01T02:09:28;-6.00;93.20
3194;DHT22;1608;50.860;13.466;2023-03-01T02:11:57;-6.00;93.40
3194;DHT22;1608;50.860;13.466;2023-03-01T02:14:24;-6.00;93.10
3194;DHT22;1608;50.860;13.466;2023-03-01T02:16:52;-6.00;93.40
3194;DHT22;1608;50.860;13.466;2023-03-01T02:19:33;-5.90;93.40
3194;DHT22;1608;50.860;13.466;2023-03-01T02:22:13;-5.90;93.30
3194;DHT22;1608;50.860;13.466;2023-03-01T02:24:50;-5.90;93.30
3194;DHT22;1608;50.860;13.466;2023-03-01T02:27:21;-5.90;93.30
3194;DHT22;1608;50.860;13.466;2023-03-01T02:29:51;-5.90;93.20
3194;DHT22;1608;50.860;13.466;2023-03-01T02:32:19;-5.90;93.40
3194;DHT22;1608;50.860;13.466;2023-03-01T02:34:51;-5.90;93.30
3194;DHT22;1608;50.860;13.466;2023-03-01T02:37:18;-6.00;93.20
3194;DHT22;1608;50.860;13.466;2023-03-01T02:39:55;-6.00;93.20
3194;DHT22;1608;50.860;13.466;2023-03-01T02:42:28;-6.00;93.20
3194;DHT22;1608;50.860;13.466;2023-03-01T02:44:58;-6.10;92.90
3194;DHT22;1608;50.860;13.466;2023-03-01T02:47:25;-6.10;92.90
3194;DHT22;1608;50.860;13.466;2023-03-01T02:49:51;-6.20;92.90
3194;DHT22;1608;50.860;13.466;2023-03-01T02:52:39;-6.30;92.90
3194;DHT22;1608;50.860;13.466;2023-03-01T02:55:09;-6.40;92.90
3194;DHT22;1608;50.860;13.466;2023-03-01T02:57:39;-6.40;93.00
3194;DHT22;1608;50.860;13.466;2023-03-01T03:00:10;-6.50;92.90
3194;DHT22;1608;50.860;13.466;2023-03-01T03:02:45;-6.40;99.90
3194;DHT22;1608;50.860;13.466;2023-03-01T03:05:14;-6.60;93.10
3194;DHT22;1608;50.860;13.466;2023-03-01T03:07:42;-6.50;93.10
3194;DHT22;1608;50.860;13.466;2023-03-01T03:10:17;-6.60;93.40
3194;DHT22;1608;50.860;13.466;2023-03-01T03:12:48;-6.60;99.90
3194;DHT22;1608;50.860;13.466;2023-03-01T03:15:17;-6.50;93.60
3194;DHT22;1608;50.860;13.466;2023-03-01T03:17:44;-6.50;93.70
3194;DHT22;1608;50.860;13.466;2023-03-01T03:20:13;-6.60;93.60
3194;DHT22;1608;50.860;13.466;2023-03-01T03:22:44;-7.10;99.90
3194;DHT22;1608;50.860;13.466;2023-03-01T03:25:12;-6.30;93.40
3194;DHT22;1608;50.860;13.466;2023-03-01T03:27:40;-6.40;93.30
3194;DHT22;1608;50.860;13.466;2023-03-01T03:30:09;-6.40;93.30
3194;DHT22;1608;50.860;13.466;2023-03-01T03:32:39;-6.40;93.30
3194;DHT22;1608;50.860;13.466;2023-03-01T03:35:07;-6.30;93.20
3194;DHT22;1608;50.860;13.466;2023-03-01T03:37:36;-6.50;93.40
3194;DHT22;1608;50.860;13.466;2023-03-01T03:40:20;-6.40;93.30
3194;DHT22;1608;50.860;13.466;2023-03-01T03:42:47;-6.50;99.90
3194;DHT22;1608;50.860;13.466;2023-03-01T03:45:14;-6.50;93.20
3194;DHT22;1608;50.860;13.466;2023-03-01T03:47:43;-6.50;93.30
3194;DHT22;1608;50.860;13.466;2023-03-01T03:50:11;-6.50;93.30
3194;DHT22;1608;50.860;13.466;2023-03-01T03:52:38;-6.50;93.20
3194;DHT22;1608;50.860;13.466;2023-03-01T03:55:06;-6.50;93.00
3194;DHT22;1608;50.860;13.466;2023-03-01T03:57:36;-6.60;93.10
3194;DHT22;1608;50.860;13.466;2023-03-01T04:00:05;-6.50;93.20
3194;DHT22;1608;50.860;13.466;2023-03-01T04:02:38;-6.60;93.10
3194;DHT22;1608;50.860;13.466;2023-03-01T04:05:08;-6.60;92.80
3194;DHT22;1608;50.860;13.466;2023-03-01T04:07:35;-6.60;93.00
3194;DHT22;1608;50.860;13.466;2023-03-01T04:10:04;-6.60;93.00
3194;DHT22;1608;50.860;13.466;2023-03-01T04:12:31;-6.70;93.10
3194;DHT22;1608;50.860;13.466;2023-03-01T04:14:59;-6.70;92.70
3194;DHT22;1608;50.860;13.466;2023-03-01T04:17:26;-6.70;93.00
3194;DHT22;1608;50.860;13.466;2023-03-01T04:19:53;-6.70;93.00
3194;DHT22;1608;50.860;13.466;2023-03-01T04:22:21;-6.80;93.10
3194;DHT22;1608;50.860;13.466;2023-03-01T04:24:48;-6.70;92.90
3194;DHT22;1608;50.860;13.466;2023-03-01T04:27:15;-6.70;93.00
3194;DHT22;1608;50.860;13.466;2023-03-01T04:29:42;-6.70;92.70
3194;DHT22;1608;50.860;13.466;2023-03-01T04:32:08;-6.80;92.60
3194;DHT22;1608;50.860;13.466;2023-03-01T04:34:35;-7.00;92.70
3194;DHT22;1608;50.860;13.466;2023-03-01T04:37:02;-6.90;93.10
3194;DHT22;1608;50.860;13.466;2023-03-01T04:39:30;-6.90;93.20
3194;DHT22;1608;50.860;13.466;2023-03-01T04:41:58;-6.90;93.20
3194;DHT22;1608;50.860;13.466;2023-03-01T04:44:24;-6.90;92.80
3194;DHT22;1608;50.860;13.466;2023-03-01T04:46:51;-6.90;93.20
3194;DHT22;1608;50.860;13.466;2023-03-01T04:49:18;-6.80;93.20
3194;DHT22;1608;50.860;13.466;2023-03-01T04:51:45;-6.80;93.00
3194;DHT22;1608;50.860;13.466;2023-03-01T04:54:12;-6.90;92.70
3194;DHT22;1608;50.860;13.466;2023-03-01T04:56:40;-6.90;93.00
3194;DHT22;1608;50.860;13.466;2023-03-01T04:59:06;-6.90;93.10
3194;DHT22;1608;50.860;13.466;2023-03-01T05:01:35;-6.90;93.50
3194;DHT22;1608;50.860;13.466;2023-03-01T05:04:03;-6.90;93.10
3194;DHT22;1608;50.860;13.466;2023-03-01T05:06:31;-6.90;93.10
3194;DHT22;1608;50.860;13.466;2023-03-01T05:08:58;-6.90;92.90
3194;DHT22;1608;50.860;13.466;2023-03-01T05:11:25;-7.00;93.00
3194;DHT22;1608;50.860;13.466;2023-03-01T05:13:54;-7.00;93.10
3194;DHT22;1608;50.860;13.466;2023-03-01T05:16:21;-7.00;99.90
3194;DHT22;1608;50.860;13.466;2023-03-01T05:18:48;-7.00;93.20
3194;DHT22;1608;50.860;13.466;2023-03-01T05:21:16;-7.00;92.80
3194;DHT22;1608;50.860;13.466;2023-03-01T05:23:44;-6.90;93.00
3194;DHT22;1608;50.860;13.466;2023-03-01T05:26:12;-6.90;92.90
3194;DHT22;1608;50.860;13.466;2023-03-01T05:28:40;-7.00;92.80
3194;DHT22;1608;50.860;13.466;2023-03-01T05:31:08;-7.00;92.80
3194;DHT22;1608;50.860;13.466;2023-03-01T05:33:36;-7.00;92.50
3194;DHT22;1608;50.860;13.466;2023-03-01T05:36:04;-7.10;92.90
3194;DHT22;1608;50.860;13.466;2023-03-01T05:38:31;-7.00;93.00
3194;DHT22;1608;50.860;13.466;2023-03-01T05:40:58;-7.10;92.70
3194;DHT22;1608;50.860;13.466;2023-03-01T05:43:25;-7.10;92.50
3194;DHT22;1608;50.860;13.466;2023-03-01T05:45:52;-7.10;92.80
3194;DHT22;1608;50.860;13.466;2023-03-01T05:48:20;-7.20;92.70
3194;DHT22;1608;50.860;13.466;2023-03-01T05:50:47;-7.20;92.80
3194;DHT22;1608;50.860;13.466;2023-03-01T05:53:15;-7.20;92.60
3194;DHT22;1608;50.860;13.466;2023-03-01T05:55:43;-7.20;92.90
3194;DHT22;1608;50.860;13.466;2023-03-01T05:58:13;-7.20;92.90
3194;DHT22;1608;50.860;13.466;2023-03-01T06:00:41;-7.20;92.80
3194;DHT22;1608;50.860;13.466;2023-03-01T06:03:10;-7.20;92.40
3194;DHT22;1608;50.860;13.466;2023-03-01T06:05:39;-7.20;92.70
3194;DHT22;1608;50.860;13.466;2023-03-01T06:08:06;-7.20;92.70
3194;DHT22;1608;50.860;13.466;2023-03-01T06:10:33;-7.20;92.70
3194;DHT22;1608;50.860;13.466;2023-03-01T06:13:00;-7.00;99.90
3194;DHT22;1608;50.860;13.466;2023-03-01T06:15:27;-7.10;92.80
3194;DHT22;1608;50.860;13.466;2023-03-01T06:17:55;-7.10;92.70
3194;DHT22;1608;50.860;13.466;2023-03-01T06:20:23;-7.00;92.90
3194;DHT22;1608;50.860;13.466;2023-03-01T06:22:52;-7.00;93.00
3194;DHT22;1608;50.860;13.466;2023-03-01T06:25:22;-6.70;93.40
3194;DHT22;1608;50.860;13.466;2023-03-01T06:27:49;-6.80;93.20
3194;DHT22;1608;50.860;13.466;2023-03-01T06:30:19;-6.70;93.20
3194;DHT22;1608;50.860;13.466;2023-03-01T06:32:46;-6.70;92.90
3194;DHT22;1608;50.860;13.466;2023-03-01T06:35:14;-6.70;92.90
3194;DHT22;1608;50.860;13.466;2023-03-01T06:37:43;-6.60;92.70
3194;DHT22;1608;50.860;13.466;2023-03-01T06:40:12;-6.60;92.90
3194;DHT22;1608;50.860;13.466;2023-03-01T06:42:41;-6.60;92.80
3194;DHT22;1608;50.860;13.466;2023-03-01T06:45:09;-6.60;92.80
3194;DHT22;1608;50.860;13.466;2023-03-01T06:47:36;-6.70;92.50
3194;DHT22;1608;50.860;13.466;2023-03-01T06:50:04;-7.00;92.50
3194;DHT22;1608;50.860;13.466;2023-03-01T06:52:31;-6.80;93.60
3194;DHT22;1608;50.860;13.466;2023-03-01T06:54:58;-6.70;93.40
3194;DHT22;1608;50.860;13.466;2023-03-01T06:57:26;-6.50;93.60
3194;DHT22;1608;50.860;13.466;2023-03-01T06:59:53;-6.30;93.60
3194;DHT22;1608;50.860;13.466;2023-03-01T07:02:20;-6.10;93.50
3194;DHT22;1608;50.860;13.466;2023-03-01T07:04:48;-6.00;93.30
3194;DHT22;1608;50.860;13.466;2023-03-01T07:07:15;-5.90;93.70
3194;DHT22;1608;50.860;13.466;2023-03-01T07:09:43;-5.80;94.20
3194;DHT22;1608;50.860;13.466;2023-03-01T07:12:10;-5.60;94.20
3194;DHT22;1608;50.860;13.466;2023-03-01T07:17:05;-4.50;93.70
3194;DHT22;1608;50.860;13.466;2023-03-01T07:19:32;-2.00;97.50
3194;DHT22;1608;50.860;13.466;2023-03-01T07:21:59;-2.10;93.70
3194;DHT22;1608;50.860;13.466;2023-03-01T07:24:26;-0.80;92.50
3194;DHT22;1608;50.860;13.466;2023-03-01T07:26:53;0.40;91.70
3194;DHT22;1608;50.860;13.466;2023-03-01T07:29:20;1.30;90.70
3194;DHT22;1608;50.860;13.466;2023-03-01T07:31:48;3.10;94.70
3194;DHT22;1608;50.860;13.466;2023-03-01T07:34:14;2.60;85.30
3194;DHT22;1608;50.860;13.466;2023-03-01T07:36:41;3.50;84.70
3194;DHT22;1608;50.860;13.466;2023-03-01T07:39:09;3.60;84.60
3194;DHT22;1608;50.860;13.466;2023-03-01T07:41:36;4.00;84.10
3194;DHT22;1608;50.860;13.466;2023-03-01T07:44:03;4.40;84.60
3194;DHT22;1608;50.860;13.466;2023-03-01T07:46:30;4.80;84.60
3194;DHT22;1608;50.860;13.466;2023-03-01T07:48:58;5.20;82.50
3194;DHT22;1608;50.860;13.466;2023-03-01T07:51:24;5.60;78.60
3194;DHT22;1608;50.860;13.466;2023-03-01T07:53:51;5.80;78.50
3194;DHT22;1608;50.860;13.466;2023-03-01T07:56:18;6.10;76.20
3194;DHT22;1608;50.860;13.466;2023-03-01T07:58:46;6.30;74.00
3194;DHT22;1608;50.860;13.466;2023-03-01T08:01:15;6.60;75.90
3194;DHT22;1608;50.860;13.466;2023-03-01T08:03:42;7.00;74.10
3194;DHT22;1608;50.860;13.466;2023-03-01T08:06:11;7.50;73.10
3194;DHT22;1608;50.860;13.466;2023-03-01T08:08:38;7.80;70.40
3194;DHT22;1608;50.860;13.466;2023-03-01T08:11:07;8.30;70.90
3194;DHT22;1608;50.860;13.466;2023-03-01T08:13:34;8.70;69.20
3194;DHT22;1608;50.860;13.466;2023-03-01T08:16:02;9.00;68.20
3194;DHT22;1608;50.860;13.466;2023-03-01T08:18:29;9.50;67.30
3194;DHT22;1608;50.860;13.466;2023-03-01T08:20:56;9.80;64.90
3194;DHT22;1608;50.860;13.466;2023-03-01T08:23:28;10.00;62.20
3194;DHT22;1608;50.860;13.466;2023-03-01T08:26:03;10.20;61.10
3194;DHT22;1608;50.860;13.466;2023-03-01T08:28:30;10.30;59.10
3194;DHT22;1608;50.860;13.466;2023-03-01T08:30:56;10.30;58.90
3194;DHT22;1608;50.860;13.466;2023-03-01T08:33:23;10.30;58.60
3194;DHT22;1608;50.860;13.466;2023-03-01T08:35:50;10.30;58.10
3194;DHT22;1608;50.860;13.466;2023-03-01T08:38:17;10.30;58.50
3194;DHT22;1608;50.860;13.466;2023-03-01T08:40:45;10.40;59.10
3194;DHT22;1608;50.860;13.466;2023-03-01T08:43:12;10.30;58.70
3194;DHT22;1608;50.860;13.466;2023-03-01T08:45:39;10.10;59.10
3194;DHT22;1608;50.860;13.466;2023-03-01T08:48:05;10.00;60.30
3194;DHT22;1608;50.860;13.466;2023-03-01T08:50:32;9.80;61.50
3194;DHT22;1608;50.860;13.466;2023-03-01T08:52:59;9.60;63.10
3194;DHT22;1608;50.860;13.466;2023-03-01T08:55:26;9.50;63.50
3194;DHT22;1608;50.860;13.466;2023-03-01T08:57:55;9.20;63.90
3194;DHT22;1608;50.860;13.466;2023-03-01T09:00:24;8.90;65.10
3194;DHT22;1608;50.860;13.466;2023-03-01T09:02:51;8.70;66.00
3194;DHT22;1608;50.860;13.466;2023-03-01T09:05:18;8.40;66.50
3194;DHT22;1608;50.860;13.466;2023-03-01T09:07:45;8.20;67.20
3194;DHT22;1608;50.860;13.466;2023-03-01T09:10:11;8.00;68.10
3194;DHT22;1608;50.860;13.466;2023-03-01T09:12:38;7.80;68.80
3194;DHT22;1608;50.860;13.466;2023-03-01T09:15:08;7.70;69.50
3194;DHT22;1608;50.860;13.466;2023-03-01T09:17:35;7.50;70.10
3194;DHT22;1608;50.860;13.466;2023-03-01T09:20:02;7.30;70.50
3194;DHT22;1608;50.860;13.466;2023-03-01T09:22:32;7.10;71.00
3194;DHT22;1608;50.860;13.466;2023-03-01T09:24:59;6.90;71.20
3194;DHT22;1608;50.860;13.466;2023-03-01T09:27:26;6.60;72.10
3194;DHT22;1608;50.860;13.466;2023-03-01T09:29:53;6.40;72.90
3194;DHT22;1608;50.860;13.466;2023-03-01T09:32:23;6.20;73.50
3194;DHT22;1608;50.860;13.466;2023-03-01T09:34:49;6.00;74.40
3194;DHT22;1608;50.860;13.466;2023-03-01T09:37:30;5.70;75.30
3194;DHT22;1608;50.860;13.466;2023-03-01T09:39:58;5.40;74.90
3194;DHT22;1608;50.860;13.466;2023-03-01T09:42:25;5.10;75.20
3194;DHT22;1608;50.860;13.466;2023-03-01T09:44:57;4.90;75.40
3194;DHT22;1608;50.860;13.466;2023-03-01T09:47:29;4.60;75.60
3194;DHT22;1608;50.860;13.466;2023-03-01T09:50:02;4.50;75.70
3194;DHT22;1608;50.860;13.466;2023-03-01T09:52:34;4.30;76.00
3194;DHT22;1608;50.860;13.466;2023-03-01T09:55:09;4.20;76.50
3194;DHT22;1608;50.860;13.466;2023-03-01T09:57:43;4.00;77.00
3194;DHT22;1608;50.860;13.466;2023-03-01T10:00:26;3.90;77.10
3194;DHT22;1608;50.860;13.466;2023-03-01T10:03:03;3.90;77.70
3194;DHT22;1608;50.860;13.466;2023-03-01T10:08:46;3.60;80.50
3194;DHT22;1608;50.860;13.466;2023-03-01T10:11:20;3.50;82.60
3194;DHT22;1608;50.860;13.466;2023-03-01T10:13:53;3.50;83.30
3194;DHT22;1608;50.860;13.466;2023-03-01T10:16:25;3.30;84.00
3194;DHT22;1608;50.860;13.466;2023-03-01T10:18:59;3.20;85.30
3194;DHT22;1608;50.860;13.466;2023-03-01T10:21:28;3.10;86.60
3194;DHT22;1608;50.860;13.466;2023-03-01T10:24:00;2.90;88.00
3194;DHT22;1608;50.860;13.466;2023-03-01T10:26:46;2.80;89.20
3194;DHT22;1608;50.860;13.466;2023-03-01T10:29:14;2.60;90.20
3194;DHT22;1608;50.860;13.466;2023-03-01T10:31:43;2.50;91.20
3194;DHT22;1608;50.860;13.466;2023-03-01T10:34:15;2.40;91.80
3194;DHT22;1608;50.860;13.466;2023-03-01T10:36:44;2.20;92.50
3194;DHT22;1608;50.860;13.466;2023-03-01T10:39:14;2.30;92.90
3194;DHT22;1608;50.860;13.466;2023-03-01T10:41:56;2.30;93.30
3194;DHT22;1608;50.860;13.466;2023-03-01T10:44:38;2.50;93.60
3194;DHT22;1608;50.860;13.466;2023-03-01T10:47:08;2.50;93.90
3194;DHT22;1608;50.860;13.466;2023-03-01T10:49:58;2.30;99.90
3194;DHT22;1608;50.860;13.466;2023-03-01T10:52:28;2.30;94.30
3194;DHT22;1608;50.860;13.466;2023-03-01T10:54:58;2.20;95.00
3194;DHT22;1608;50.860;13.466;2023-03-01T10:57:35;2.20;95.40
3194;DHT22;1608;50.860;13.466;2023-03-01T11:00:19;2.30;96.00
3194;DHT22;1608;50.860;13.466;2023-03-01T11:02:49;2.20;96.10
3194;DHT22;1608;50.860;13.466;2023-03-01T11:05:21;2.20;96.30
3194;DHT22;1608;50.860;13.466;2023-03-01T11:07:51;2.10;96.80
3194;DHT22;1608;50.860;13.466;2023-03-01T11:10:20;2.20;97.30
3194;DHT22;1608;50.860;13.466;2023-03-01T11:12:48;2.30;97.50
3194;DHT22;1608;50.860;13.466;2023-03-01T11:15:25;2.40;97.70
3194;DHT22;1608;50.860;13.466;2023-03-01T11:17:53;2.50;97.80
3194;DHT22;1608;50.860;13.466;2023-03-01T11:20:27;2.30;97.90
3194;DHT22;1608;50.860;13.466;2023-03-01T11:22:58;2.30;98.50
3194;DHT22;1608;50.860;13.466;2023-03-01T11:25:29;2.20;98.60
3194;DHT22;1608;50.860;13.466;2023-03-01T11:27:58;2.10;99.40
3194;DHT22;1608;50.860;13.466;2023-03-01T11:30:28;2.00;99.90
3194;DHT22;1608;50.860;13.466;2023-03-01T11:33:04;2.10;99.90
3194;DHT22;1608;50.860;13.466;2023-03-01T11:35:37;2.10;99.90
3194;DHT22;1608;50.860;13.466;2023-03-01T11:38:16;2.00;99.90
3194;DHT22;1608;50.860;13.466;2023-03-01T11:40:47;2.00;99.90
3194;DHT22;1608;50.860;13.466;2023-03-01T11:43:23;2.10;99.90
3194;DHT22;1608;50.860;13.466;2023-03-01T11:49:04;2.30;99.90
3194;DHT22;1608;50.860;13.466;2023-03-01T11:51:43;2.40;99.90
3194;DHT22;1608;50.860;13.466;2023-03-01T11:54:28;2.40;99.50
3194;DHT22;1608;50.860;13.466;2023-03-01T11:57:00;2.50;99.30
3194;DHT22;1608;50.860;13.466;2023-03-01T12:05:24;2.50;98.90
3194;DHT22;1608;50.860;13.466;2023-03-01T12:07:59;2.50;99.40
3194;DHT22;1608;50.860;13.466;2023-03-01T12:10:34;2.60;99.70
3194;DHT22;1608;50.860;13.466;2023-03-01T12:13:21;2.70;99.90
3194;DHT22;1608;50.860;13.466;2023-03-01T12:16:08;2.80;99.90
3194;DHT22;1608;50.860;13.466;2023-03-01T12:18:51;2.80;99.90
3194;DHT22;1608;50.860;13.466;2023-03-01T12:21:29;2.80;99.50
3194;DHT22;1608;50.860;13.466;2023-03-01T12:24:41;2.80;99.80
3194;DHT22;1608;50.860;13.466;2023-03-01T12:27:28;2.80;99.50
3194;DHT22;1608;50.860;13.466;2023-03-01T12:30:01;2.90;99.70
3194;DHT22;1608;50.860;13.466;2023-03-01T12:32:40;2.90;99.10
3194;DHT22;1608;50.860;13.466;2023-03-01T12:35:30;2.80;98.90
3194;DHT22;1608;50.860;13.466;2023-03-01T12:38:06;2.90;99.10
3194;DHT22;1608;50.860;13.466;2023-03-01T12:41:00;2.80;99.10
3194;DHT22;1608;50.860;13.466;2023-03-01T12:43:46;2.90;98.80
3194;DHT22;1608;50.860;13.466;2023-03-01T12:46:25;3.00;99.10
3194;DHT22;1608;50.860;13.466;2023-03-01T12:49:02;3.20;98.60
3194;DHT22;1608;50.860;13.466;2023-03-01T12:51:34;3.20;98.10
3194;DHT22;1608;50.860;13.466;2023-03-01T12:54:07;3.40;98.00
3194;DHT22;1608;50.860;13.466;2023-03-01T12:56:39;3.30;97.40
3194;DHT22;1608;50.860;13.466;2023-03-01T12:59:14;3.60;97.70
3194;DHT22;1608;50.860;13.466;2023-03-01T13:01:49;3.80;97.80
3194;DHT22;1608;50.860;13.466;2023-03-01T13:04:28;3.90;97.50
3194;DHT22;1608;50.860;13.466;2023-03-01T13:07:05;4.00;97.10
3194;DHT22;1608;50.860;13.466;2023-03-01T13:09:40;4.00;99.90
3194;DHT22;1608;50.860;13.466;2023-03-01T13:15:26;4.00;96.60
3194;DHT22;1608;50.860;13.466;2023-03-01T13:17:54;3.80;96.50
3194;DHT22;1608;50.860;13.466;2023-03-01T13:20:25;3.70;96.30
3194;DHT22;1608;50.860;13.466;2023-03-01T13:23:02;3.60;95.90
3194;DHT22;1608;50.860;13.466;2023-03-01T13:25:30;3.70;95.90
3194;DHT22;1608;50.860;13.466;2023-03-01T13:30:58;3.80;95.90
3194;DHT22;1608;50.860;13.466;2023-03-01T13:33:41;3.90;95.80
3194;DHT22;1608;50.860;13.466;2023-03-01T13:36:09;3.90;95.60
3194;DHT22;1608;50.860;13.466;2023-03-01T13:38:44;4.00;95.60
3194;DHT22;1608;50.860;13.466;2023-03-01T13:41:13;4.00;95.30
3194;DHT22;1608;50.860;13.466;2023-03-01T13:43:41;4.00;95.20
3194;DHT22;1608;50.860;13.466;2023-03-01T13:46:12;4.00;95.00
3194;DHT22;1608;50.860;13.466;2023-03-01T13:48:43;4.10;95.10
3194;DHT22;1608;50.860;13.466;2023-03-01T13:51:11;4.10;94.30
3194;DHT22;1608;50.860;13.466;2023-03-01T13:53:42;4.10;93.70
3194;DHT22;1608;50.860;13.466;2023-03-01T13:56:13;4.10;94.10
3194;DHT22;1608;50.860;13.466;2023-03-01T13:58:47;4.00;94.00
3194;DHT22;1608;50.860;13.466;2023-03-01T14:01:26;4.10;94.30
3194;DHT22;1608;50.860;13.466;2023-03-01T14:03:54;4.10;93.80
3194;DHT22;1608;50.860;13.466;2023-03-01T14:06:23;4.20;93.80
3194;DHT22;1608;50.860;13.466;2023-03-01T14:09:00;4.10;93.70
3194;DHT22;1608;50.860;13.466;2023-03-01T14:11:52;4.10;93.80
3194;DHT22;1608;50.860;13.466;2023-03-01T14:14:46;4.00;94.10
3194;DHT22;1608;50.860;13.466;2023-03-01T14:17:48;4.10;94.70
3194;DHT22;1608;50.860;13.466;2023-03-01T14:20:19;4.20;94.60
3194;DHT22;1608;50.860;13.466;2023-03-01T14:22:47;4.40;94.80
3194;DHT22;1608;50.860;13.466;2023-03-01T14:25:21;4.40;94.70
3194;DHT22;1608;50.860;13.466;2023-03-01T14:27:58;4.30;94.30
3194;DHT22;1608;50.860;13.466;2023-03-01T14:30:27;4.40;94.70
3194;DHT22;1608;50.860;13.466;2023-03-01T14:32:59;4.50;94.50
3194;DHT22;1608;50.860;13.466;2023-03-01T14:35:27;4.50;94.40
3194;DHT22;1608;50.860;13.466;2023-03-01T14:37:54;4.40;94.10
3194;DHT22;1608;50.860;13.466;2023-03-01T14:40:24;4.30;94.50
3194;DHT22;1608;50.860;13.466;2023-03-01T14:42:51;4.20;94.70
3194;DHT22;1608;50.860;13.466;2023-03-01T14:45:19;4.20;95.00
3194;DHT22;1608;50.860;13.466;2023-03-01T14:47:46;4.20;95.50
3194;DHT22;1608;50.860;13.466;2023-03-01T14:50:23;4.10;95.10
3194;DHT22;1608;50.860;13.466;2023-03-01T14:52:53;4.10;95.10
3194;DHT22;1608;50.860;13.466;2023-03-01T14:55:23;4.20;95.10
3194;DHT22;1608;50.860;13.466;2023-03-01T14:57:52;4.40;95.40
3194;DHT22;1608;50.860;13.466;2023-03-01T15:00:21;4.40;95.30
3194;DHT22;1608;50.860;13.466;2023-03-01T15:02:50;4.50;95.10
3194;DHT22;1608;50.860;13.466;2023-03-01T15:05:25;4.50;95.10
3194;DHT22;1608;50.860;13.466;2023-03-01T15:07:53;4.50;94.90
3194;DHT22;1608;50.860;13.466;2023-03-01T15:10:22;4.50;95.10
3194;DHT22;1608;50.860;13.466;2023-03-01T15:12:49;4.40;94.90
3194;DHT22;1608;50.860;13.466;2023-03-01T15:15:34;4.30;94.90
3194;DHT22;1608;50.860;13.466;2023-03-01T15:18:03;4.30;94.80
3194;DHT22;1608;50.860;13.466;2023-03-01T15:20:33;4.30;94.80
3194;DHT22;1608;50.860;13.466;2023-03-01T15:23:02;4.20;94.40
3194;DHT22;1608;50.860;13.466;2023-03-01T15:25:30;4.20;94.50
3194;DHT22;1608;50.860;13.466;2023-03-01T15:27:59;4.20;94.10
3194;DHT22;1608;50.860;13.466;2023-03-01T15:30:29;4.20;94.20
3194;DHT22;1608;50.860;13.466;2023-03-01T15:33:25;4.30;94.30
3194;DHT22;1608;50.860;13.466;2023-03-01T15:35:56;4.30;94.00
3194;DHT22;1608;50.860;13.466;2023-03-01T15:38:26;4.20;93.70
3194;DHT22;1608;50.860;13.466;2023-03-01T15:40:54;4.20;93.70
3194;DHT22;1608;50.860;13.466;2023-03-01T15:43:38;4.20;93.20
3194;DHT22;1608;50.860;13.466;2023-03-01T15:46:11;4.10;93.10
3194;DHT22;1608;50.860;13.466;2023-03-01T15:48:39;4.10;93.30
3194;DHT22;1608;50.860;13.466;2023-03-01T15:51:12;4.10;93.30
3194;DHT22;1608;50.860;13.466;2023-03-01T15:53:40;4.10;93.60
3194;DHT22;1608;50.860;13.466;2023-03-01T15:56:07;4.00;93.40
3194;DHT22;1608;50.860;13.466;2023-03-01T15:58:33;4.10;93.50
3194;DHT22;1608;50.860;13.466;2023-03-01T16:01:00;4.00;93.50
3194;DHT22;1608;50.860;13.466;2023-03-01T16:03:27;4.00;93.50
3194;DHT22;1608;50.860;13.466;2023-03-01T16:05:54;4.00;93.50
3194;DHT22;1608;50.860;13.466;2023-03-01T16:08:22;3.90;93.50
3194;DHT22;1608;50.860;13.466;2023-03-01T16:10:49;3.90;93.40
3194;DHT22;1608;50.860;13.466;2023-03-01T16:13:16;3.80;93.60
3194;DHT22;1608;50.860;13.466;2023-03-01T16:15:43;3.90;93.90
3194;DHT22;1608;50.860;13.466;2023-03-01T16:18:10;3.70;93.90
3194;DHT22;1608;50.860;13.466;2023-03-01T16:20:37;3.70;93.90
3194;DHT22;1608;50.860;13.466;2023-03-01T16:23:06;3.60;93.80
3194;DHT22;1608;50.860;13.466;2023-03-01T16:25:35;3.60;94.10
3194;DHT22;1608;50.860;13.466;2023-03-01T16:28:03;3.50;93.70
3194;DHT22;1608;50.860;13.466;2023-03-01T16:30:34;3.50;93.90
3194;DHT22;1608;50.860;13.466;2023-03-01T16:33:01;3.40;93.80
3194;DHT22;1608;50.860;13.466;2023-03-01T16:35:32;3.30;93.60